Time;durP1;ratioP1;P1;durP2;ratioP2;P2;SDS_P1;SDS_P2;PMS_P1;PMS_P2;Temp;Humidity;BMP_temperature;BMP_pressure;BME280_temperature;BME280_humidity;BME280_pressure;Samples;Min_cycle;Max_cycle;Signal;HPM_P1;HPM_P2
2021/08/18 00:01:57;;;;;;;36.85;17.85;;;;;;;;;;5093519;28;20499;-70
2021/08/18 00:04:22;;;;;;;32.38;17.25;;;;;;;;;;5094309;28;20020;-70
2021/08/18 00:06:47;;;;;;;35.50;18.33;;;;;;;;;;5084151;28;20149;-71
2021/08/18 00:09:13;;;;;;;36.25;18.23;;;;;;;;;;5089097;28;20381;-70
2021/08/18 00:11:38;;;;;;;35.45;17.55;;;;;;;;;;5086327;28;20056;-70
2021/08/18 00:14:03;;;;;;;38.65;18.75;;;;;;;;;;5090773;28;20358;-70
2021/08/18 00:16:29;;;;;;;39.58;19.38;;;;;;;;;;5092177;28;20093;-70
2021/08/18 00:18:54;;;;;;;34.65;17.60;;;;;;;;;;5091100;28;20385;-70
2021/08/18 00:21:20;;;;;;;33.57;16.97;;;;;;;;;;5073789;28;20020;-70
2021/08/18 00:23:45;;;;;;;34.97;17.90;;;;;;;;;;5089377;28;20778;-71
2021/08/18 00:26:11;;;;;;;35.13;18.20;;;;;;;;;;5090258;28;20114;-70
2021/08/18 00:28:36;;;;;;;37.47;18.63;;;;;;;;;;5094767;28;20401;-70
2021/08/18 00:31:01;;;;;;;34.43;17.00;;;;;;;;;;5091068;28;20109;-70
2021/08/18 00:33:26;;;;;;;38.43;19.07;;;;;;;;;;5088491;28;20274;-70
2021/08/18 00:35:52;;;;;;;36.53;19.33;;;;;;;;;;5091204;28;20853;-70
2021/08/18 00:38:17;;;;;;;31.47;16.77;;;;;;;;;;5092944;28;20278;-70
2021/08/18 00:40:42;;;;;;;35.90;18.07;;;;;;;;;;5073488;28;20349;-71
2021/08/18 00:43:07;;;;;;;41.90;17.67;;;;;;;;;;5095673;28;20738;-70
2021/08/18 00:45:32;;;;;;;44.77;17.63;;;;;;;;;;5093535;28;20281;-70
2021/08/18 00:47:58;;;;;;;42.55;21.23;;;;;;;;;;5086182;28;20282;-70
2021/08/18 00:50:24;;;;;;;37.28;19.23;;;;;;;;;;5072479;28;20049;-70
2021/08/18 00:52:50;;;;;;;43.85;19.60;;;;;;;;;;5071667;28;20366;-70
2021/08/18 00:55:17;;;;;;;47.95;21.77;;;;;;;;;;5083493;28;20027;-70
2021/08/18 00:57:42;;;;;;;41.88;20.77;;;;;;;;;;5084263;28;20028;-70
2021/08/18 01:00:08;;;;;;;45.00;21.48;;;;;;;;;;5085257;28;20081;-70
2021/08/18 01:02:36;;;;;;;43.42;23.05;;;;;;;;;;5072634;28;20031;-70
2021/08/18 01:05:02;;;;;;;62.00;23.50;;;;;;;;;;5093291;28;20020;-70
2021/08/18 01:07:27;;;;;;;43.83;20.05;;;;;;;;;;5086706;28;20153;-70
2021/08/18 01:09:52;;;;;;;42.40;20.40;;;;;;;;;;5082038;28;20260;-70
2021/08/18 01:12:17;;;;;;;50.93;22.70;;;;;;;;;;5090330;28;20273;-70
2021/08/18 01:14:43;;;;;;;45.22;22.42;;;;;;;;;;5080299;28;20327;-70
2021/08/18 01:17:10;;;;;;;47.08;23.60;;;;;;;;;;5093120;28;20055;-70
2021/08/18 01:19:35;;;;;;;50.67;24.77;;;;;;;;;;5089057;28;20048;-70
2021/08/18 01:22:00;;;;;;;56.27;24.93;;;;;;;;;;5091836;28;20204;-70
2021/08/18 01:24:26;;;;;;;51.70;25.15;;;;;;;;;;5094206;28;20269;-70
2021/08/18 01:26:51;;;;;;;51.75;23.67;;;;;;;;;;5090842;28;20009;-70
2021/08/18 01:29:16;;;;;;;55.97;25.70;;;;;;;;;;5094149;28;20082;-70
2021/08/18 01:31:42;;;;;;;44.07;21.00;;;;;;;;;;5086324;28;20297;-70
2021/08/18 01:34:07;;;;;;;41.75;22.00;;;;;;;;;;5076602;28;20302;-70
2021/08/18 01:36:33;;;;;;;47.65;20.48;;;;;;;;;;5090418;28;20070;-70
2021/08/18 01:39:02;;;;;;;37.80;17.63;;;;;;;;;;5091796;28;20069;-71
2021/08/18 01:41:27;;;;;;;37.72;17.90;;;;;;;;;;5087955;28;20397;-70
2021/08/18 01:43:53;;;;;;;45.92;20.20;;;;;;;;;;5071604;28;20020;-70
2021/08/18 01:46:18;;;;;;;45.45;19.45;;;;;;;;;;5087240;28;20025;-70
2021/08/18 01:48:43;;;;;;;40.57;18.50;;;;;;;;;;5088691;28;20100;-70
2021/08/18 01:51:08;;;;;;;39.83;17.20;;;;;;;;;;5090812;28;20269;-70
2021/08/18 01:53:34;;;;;;;37.10;17.30;;;;;;;;;;5090386;28;20250;-70
2021/08/18 01:56:00;;;;;;;32.00;15.57;;;;;;;;;;5090687;28;20603;-70
2021/08/18 01:58:26;;;;;;;36.05;15.40;;;;;;;;;;5089942;28;20069;-70
2021/08/18 02:00:51;;;;;;;36.08;16.80;;;;;;;;;;5081350;28;20028;-70
2021/08/18 02:03:16;;;;;;;29.85;13.95;;;;;;;;;;5063930;28;20070;-70
2021/08/18 02:05:41;;;;;;;29.63;14.40;;;;;;;;;;5100264;28;20073;-70
2021/08/18 02:08:06;;;;;;;35.45;15.88;;;;;;;;;;5070561;28;20297;-70
2021/08/18 02:10:32;;;;;;;30.60;14.63;;;;;;;;;;5086527;28;20458;-70
2021/08/18 02:12:57;;;;;;;25.20;14.65;;;;;;;;;;5094124;28;20043;-70
2021/08/18 02:15:26;;;;;;;31.35;15.48;;;;;;;;;;5087272;28;20089;-70
2021/08/18 02:17:52;;;;;;;38.00;15.45;;;;;;;;;;5086045;28;20027;-70
2021/08/18 02:20:19;;;;;;;33.38;13.90;;;;;;;;;;5098677;28;20024;-70
2021/08/18 02:22:44;;;;;;;30.92;14.70;;;;;;;;;;5097502;28;20375;-70
2021/08/18 02:25:10;;;;;;;33.30;15.98;;;;;;;;;;5090807;28;20088;-70
2021/08/18 02:27:35;;;;;;;30.67;14.25;;;;;;;;;;5075945;28;20039;-70
2021/08/18 02:30:00;;;;;;;31.08;15.75;;;;;;;;;;5089901;28;20028;-70
2021/08/18 02:32:25;;;;;;;31.77;16.10;;;;;;;;;;5088435;28;20388;-70
2021/08/18 02:34:51;;;;;;;33.50;15.07;;;;;;;;;;5094249;28;20099;-70
2021/08/18 02:37:16;;;;;;;35.33;14.43;;;;;;;;;;5079675;28;20028;-70
2021/08/18 02:39:41;;;;;;;29.38;14.95;;;;;;;;;;5083273;28;20777;-70
2021/08/18 02:42:06;;;;;;;33.90;15.68;;;;;;;;;;5093675;28;20020;-70
2021/08/18 02:44:32;;;;;;;29.63;15.75;;;;;;;;;;5084205;28;20059;-70
2021/08/18 02:46:57;;;;;;;32.08;15.25;;;;;;;;;;5092444;28;20024;-70
2021/08/18 02:49:22;;;;;;;38.07;15.70;;;;;;;;;;5077614;28;20093;-70
2021/08/18 02:51:47;;;;;;;37.30;16.27;;;;;;;;;;5093075;28;20908;-70
2021/08/18 02:54:12;;;;;;;36.83;16.67;;;;;;;;;;5092623;28;20430;-70
2021/08/18 02:56:38;;;;;;;37.03;17.70;;;;;;;;;;5092785;28;20524;-70
2021/08/18 02:59:03;;;;;;;37.07;18.30;;;;;;;;;;5092109;28;20288;-70
2021/08/18 03:01:28;;;;;;;42.95;19.25;;;;;;;;;;5092340;28;20274;-70
2021/08/18 03:03:53;;;;;;;37.17;17.33;;;;;;;;;;5092564;28;20016;-70
2021/08/18 03:06:18;;;;;;;40.38;18.48;;;;;;;;;;5093108;28;20685;-70
2021/08/18 03:08:44;;;;;;;36.37;17.20;;;;;;;;;;5095983;28;20020;-70
2021/08/18 03:11:09;;;;;;;41.77;17.87;;;;;;;;;;5088967;28;20332;-70
2021/08/18 03:13:34;;;;;;;40.72;16.95;;;;;;;;;;5093498;28;20971;-70
2021/08/18 03:15:59;;;;;;;40.47;17.27;;;;;;;;;;5085568;28;20036;-70
2021/08/18 03:18:25;;;;;;;34.10;17.25;;;;;;;;;;5093251;28;20364;-70
2021/08/18 03:20:50;;;;;;;34.50;17.98;;;;;;;;;;5097962;28;20454;-70
2021/08/18 03:23:15;;;;;;;40.17;17.85;;;;;;;;;;5092188;28;20065;-70
2021/08/18 03:25:40;;;;;;;41.60;20.40;;;;;;;;;;5095363;28;20031;-70
2021/08/18 03:28:06;;;;;;;38.60;19.23;;;;;;;;;;5092195;28;20015;-70
2021/08/18 03:30:31;;;;;;;36.30;18.38;;;;;;;;;;5094686;28;20008;-70
2021/08/18 03:32:56;;;;;;;42.30;18.97;;;;;;;;;;5084698;28;20046;-70
2021/08/18 03:35:22;;;;;;;36.40;18.57;;;;;;;;;;5093879;28;20289;-70
2021/08/18 03:37:47;;;;;;;39.93;19.90;;;;;;;;;;5069966;28;20255;-70
2021/08/18 03:40:12;;;;;;;42.25;19.63;;;;;;;;;;5093864;28;20266;-70
2021/08/18 03:42:37;;;;;;;39.97;18.52;;;;;;;;;;5083291;28;20021;-70
2021/08/18 03:45:03;;;;;;;38.70;19.53;;;;;;;;;;5092244;28;20059;-70
2021/08/18 03:47:28;;;;;;;42.70;20.20;;;;;;;;;;5089978;28;20304;-70
2021/08/18 03:49:53;;;;;;;37.38;18.98;;;;;;;;;;5085695;28;20503;-70
2021/08/18 03:52:19;;;;;;;42.70;19.23;;;;;;;;;;5076372;28;20093;-70
2021/08/18 03:54:44;;;;;;;44.83;21.60;;;;;;;;;;5091233;28;20039;-70
2021/08/18 03:57:09;;;;;;;43.43;20.63;;;;;;;;;;5090786;28;20111;-70
2021/08/18 03:59:34;;;;;;;47.83;20.50;;;;;;;;;;5093863;28;20747;-70
2021/08/18 04:01:59;;;;;;;49.20;21.88;;;;;;;;;;5089517;28;20270;-70
2021/08/18 04:04:24;;;;;;;45.37;21.03;;;;;;;;;;5090356;28;20051;-70
2021/08/18 04:06:50;;;;;;;43.97;20.77;;;;;;;;;;5072164;28;20282;-70
2021/08/18 04:09:15;;;;;;;40.45;19.98;;;;;;;;;;5082075;28;20265;-70
2021/08/18 04:11:40;;;;;;;42.40;19.20;;;;;;;;;;5090663;28;20020;-70
2021/08/18 04:14:05;;;;;;;39.70;20.30;;;;;;;;;;5094504;28;20023;-69
2021/08/18 04:16:30;;;;;;;42.03;19.98;;;;;;;;;;5092793;28;20345;-70
2021/08/18 04:18:56;;;;;;;37.35;18.25;;;;;;;;;;5074939;28;20413;-70
2021/08/18 04:21:21;;;;;;;39.27;18.40;;;;;;;;;;5087539;28;20017;-70
2021/08/18 04:23:46;;;;;;;45.50;19.43;;;;;;;;;;5090619;28;20796;-70
2021/08/18 04:26:12;;;;;;;43.40;19.92;;;;;;;;;;5082560;28;20361;-70
2021/08/18 04:28:37;;;;;;;46.03;21.17;;;;;;;;;;5087621;28;20016;-70
2021/08/18 04:31:02;;;;;;;36.93;18.87;;;;;;;;;;5091033;28;20035;-70
2021/08/18 04:33:28;;;;;;;42.25;19.80;;;;;;;;;;5089287;28;20266;-70
2021/08/18 04:35:53;;;;;;;46.15;19.17;;;;;;;;;;5091161;28;20039;-70
2021/08/18 04:38:18;;;;;;;57.43;22.60;;;;;;;;;;5091774;28;20485;-70
2021/08/18 04:40:43;;;;;;;48.38;19.33;;;;;;;;;;5085751;28;20277;-70
2021/08/18 04:43:12;;;;;;;45.57;20.23;;;;;;;;;;5090222;28;20031;-70
2021/08/18 04:45:38;;;;;;;41.38;18.95;;;;;;;;;;5104606;22;20780;-71
2021/08/18 04:48:03;;;;;;;38.42;18.33;;;;;;;;;;5105863;28;20028;-70
2021/08/18 04:50:28;;;;;;;35.38;18.92;;;;;;;;;;5115025;27;20026;-70
2021/08/18 04:52:54;;;;;;;35.67;18.80;;;;;;;;;;5108790;28;20060;-70
2021/08/18 04:55:19;;;;;;;42.25;18.80;;;;;;;;;;5119420;27;20015;-70
2021/08/18 04:57:44;;;;;;;38.25;17.85;;;;;;;;;;5117644;27;20091;-70
2021/08/18 05:00:10;;;;;;;34.58;17.60;;;;;;;;;;5107672;28;20023;-70
2021/08/18 05:02:35;;;;;;;34.10;16.98;;;;;;;;;;5129620;27;20046;-70
2021/08/18 05:05:01;;;;;;;34.42;17.83;;;;;;;;;;5125319;27;20076;-70
2021/08/18 05:07:27;;;;;;;32.88;16.30;;;;;;;;;;5113264;27;20093;-70
2021/08/18 05:09:52;;;;;;;37.55;16.92;;;;;;;;;;5114462;27;20092;-72
2021/08/18 05:12:17;;;;;;;35.22;17.92;;;;;;;;;;5115152;27;20043;-72
2021/08/18 05:14:42;;;;;;;40.70;19.30;;;;;;;;;;5120284;27;20127;-72
2021/08/18 05:17:08;;;;;;;54.60;22.33;;;;;;;;;;5126736;27;20722;-72
2021/08/18 05:19:33;;;;;;;44.13;19.67;;;;;;;;;;5120335;27;20271;-72
2021/08/18 05:21:58;;;;;;;38.50;18.03;;;;;;;;;;5116256;27;20031;-72
2021/08/18 05:24:23;;;;;;;50.17;20.10;;;;;;;;;;5122551;27;20267;-72
2021/08/18 05:26:48;;;;;;;39.80;20.45;;;;;;;;;;5112100;27;20692;-72
2021/08/18 05:29:14;;;;;;;45.55;21.83;;;;;;;;;;5127786;27;20425;-72
2021/08/18 05:31:39;;;;;;;47.17;21.97;;;;;;;;;;5130330;27;20407;-72
2021/08/18 05:34:04;;;;;;;56.80;24.33;;;;;;;;;;5124575;27;20326;-72
2021/08/18 05:36:30;;;;;;;46.75;22.58;;;;;;;;;;5121446;27;20053;-72
2021/08/18 05:38:55;;;;;;;51.72;23.00;;;;;;;;;;5112758;27;20062;-72
2021/08/18 05:41:20;;;;;;;52.67;25.57;;;;;;;;;;5111244;27;20088;-72
2021/08/18 05:43:45;;;;;;;48.17;22.27;;;;;;;;;;5122347;27;20264;-72
2021/08/18 05:46:10;;;;;;;55.30;24.10;;;;;;;;;;5111044;28;20357;-72
2021/08/18 05:48:35;;;;;;;51.00;25.23;;;;;;;;;;5111429;27;20265;-72
2021/08/18 05:51:01;;;;;;;52.63;24.20;;;;;;;;;;5116283;28;20764;-70
2021/08/18 05:53:27;;;;;;;53.47;23.23;;;;;;;;;;5124981;27;20268;-70
2021/08/18 05:55:52;;;;;;;60.80;25.00;;;;;;;;;;5116559;28;20047;-70
2021/08/18 05:58:17;;;;;;;52.10;23.73;;;;;;;;;;5116714;28;20102;-71
2021/08/18 06:00:42;;;;;;;53.95;25.15;;;;;;;;;;5112072;28;20353;-72
2021/08/18 06:03:08;;;;;;;63.85;26.33;;;;;;;;;;5112451;28;20031;-70
2021/08/18 06:05:33;;;;;;;54.88;26.40;;;;;;;;;;5122239;27;20027;-70
2021/08/18 06:07:58;;;;;;;58.58;27.13;;;;;;;;;;5130717;27;20015;-70
2021/08/18 06:10:24;;;;;;;56.93;25.90;;;;;;;;;;5119976;28;20075;-70
2021/08/18 06:12:49;;;;;;;67.45;29.75;;;;;;;;;;5112393;28;20266;-70
2021/08/18 06:15:15;;;;;;;54.78;26.25;;;;;;;;;;5114302;28;20031;-70
2021/08/18 06:17:40;;;;;;;53.03;25.23;;;;;;;;;;5116847;28;20020;-70
2021/08/18 06:20:06;;;;;;;57.70;27.83;;;;;;;;;;5111394;28;20023;-70
2021/08/18 06:22:31;;;;;;;52.33;26.02;;;;;;;;;;5114065;28;20110;-70
2021/08/18 06:25:01;;;;;;;59.20;26.53;;;;;;;;;;5112399;28;20380;-70
2021/08/18 06:27:26;;;;;;;48.03;27.15;;;;;;;;;;5112412;27;20273;-70
2021/08/18 06:29:51;;;;;;;52.42;27.63;;;;;;;;;;5112945;28;20019;-70
2021/08/18 06:32:17;;;;;;;52.27;27.03;;;;;;;;;;5114650;28;20028;-70
2021/08/18 06:34:42;;;;;;;52.70;26.70;;;;;;;;;;5116231;28;20348;-70
2021/08/18 06:37:07;;;;;;;56.73;26.90;;;;;;;;;;5111926;28;20334;-70
2021/08/18 06:39:33;;;;;;;50.60;23.80;;;;;;;;;;5111054;28;20265;-70
2021/08/18 06:41:59;;;;;;;45.03;25.33;;;;;;;;;;5115851;27;20024;-70
2021/08/18 06:44:24;;;;;;;49.13;24.98;;;;;;;;;;5110647;28;20027;-70
2021/08/18 06:46:49;;;;;;;48.90;25.17;;;;;;;;;;5127532;27;20035;-70
2021/08/18 06:49:15;;;;;;;49.67;26.70;;;;;;;;;;5129152;27;20016;-70
2021/08/18 06:51:40;;;;;;;48.50;26.43;;;;;;;;;;5115567;28;20098;-71
2021/08/18 06:54:05;;;;;;;46.17;26.40;;;;;;;;;;5112640;28;20627;-71
2021/08/18 06:56:30;;;;;;;45.63;24.10;;;;;;;;;;5109972;27;20023;-71
2021/08/18 06:58:56;;;;;;;54.20;26.80;;;;;;;;;;5117154;27;20020;-71
2021/08/18 07:01:21;;;;;;;51.20;24.87;;;;;;;;;;5114580;27;20023;-71
2021/08/18 07:03:46;;;;;;;45.07;24.70;;;;;;;;;;5114519;27;20300;-71
2021/08/18 07:06:11;;;;;;;43.95;24.95;;;;;;;;;;5123003;27;20786;-71
2021/08/18 07:08:36;;;;;;;45.17;23.83;;;;;;;;;;5122425;27;20027;-71
2021/08/18 07:11:01;;;;;;;38.67;22.50;;;;;;;;;;5114010;27;20262;-71
2021/08/18 07:13:27;;;;;;;41.97;22.90;;;;;;;;;;5127855;27;20842;-72
2021/08/18 07:15:52;;;;;;;39.08;20.77;;;;;;;;;;5126845;27;20288;-71
2021/08/18 07:18:17;;;;;;;39.30;21.67;;;;;;;;;;5114470;27;20051;-72
2021/08/18 07:20:42;;;;;;;36.88;19.23;;;;;;;;;;5123672;27;20317;-72
2021/08/18 07:23:07;;;;;;;33.63;20.80;;;;;;;;;;5133887;27;20022;-71
2021/08/18 07:25:33;;;;;;;31.23;18.97;;;;;;;;;;5131726;27;20070;-71
2021/08/18 07:27:58;;;;;;;33.58;19.92;;;;;;;;;;5119026;27;20326;-71
2021/08/18 07:30:23;;;;;;;32.10;19.48;;;;;;;;;;5114235;27;20023;-71
2021/08/18 07:32:49;;;;;;;40.60;21.48;;;;;;;;;;5121994;27;20057;-72
2021/08/18 07:35:14;;;;;;;31.63;20.00;;;;;;;;;;5117898;27;20020;-71
2021/08/18 07:37:40;;;;;;;29.38;18.38;;;;;;;;;;5124076;27;20019;-71
2021/08/18 07:40:05;;;;;;;38.75;19.17;;;;;;;;;;5123854;27;20019;-71
2021/08/18 07:42:30;;;;;;;29.40;17.33;;;;;;;;;;5113711;27;20093;-71
2021/08/18 07:44:56;;;;;;;32.15;18.77;;;;;;;;;;5113676;27;20024;-71
2021/08/18 07:47:21;;;;;;;31.42;18.98;;;;;;;;;;5113923;27;20031;-71
2021/08/18 07:49:46;;;;;;;32.38;19.60;;;;;;;;;;5113521;27;20023;-71
2021/08/18 07:52:11;;;;;;;34.17;17.80;;;;;;;;;;5119094;27;20107;-71
2021/08/18 07:54:36;;;;;;;31.27;17.15;;;;;;;;;;5114140;27;20080;-71
2021/08/18 07:57:02;;;;;;;32.27;16.77;;;;;;;;;;5113198;27;20035;-71
2021/08/18 07:59:27;;;;;;;34.80;16.65;;;;;;;;;;5118692;27;20297;-71
2021/08/18 08:01:52;;;;;;;30.67;17.97;;;;;;;;;;5131067;27;20068;-71
2021/08/18 08:04:18;;;;;;;29.52;16.80;;;;;;;;;;5126298;27;20261;-71
2021/08/18 08:06:44;;;;;;;27.65;15.63;;;;;;;;;;5114827;27;20143;-71
2021/08/18 08:09:10;;;;;;;29.15;16.13;;;;;;;;;;5114971;27;20015;-71
2021/08/18 08:11:35;;;;;;;34.67;17.67;;;;;;;;;;5124962;27;20480;-71
2021/08/18 08:14:00;;;;;;;29.07;17.57;;;;;;;;;;5119848;27;20023;-71
2021/08/18 08:16:25;;;;;;;28.38;16.27;;;;;;;;;;5131856;27;20343;-71
2021/08/18 08:18:50;;;;;;;30.47;16.80;;;;;;;;;;5130424;27;20447;-72
2021/08/18 08:21:16;;;;;;;30.57;16.13;;;;;;;;;;5124539;27;20276;-71
2021/08/18 08:23:42;;;;;;;28.67;16.90;;;;;;;;;;5118060;27;20277;-72
2021/08/18 08:26:07;;;;;;;24.90;16.10;;;;;;;;;;5113114;27;20274;-72
2021/08/18 08:28:33;;;;;;;29.77;15.95;;;;;;;;;;5112566;27;20072;-71
2021/08/18 08:30:58;;;;;;;27.65;17.40;;;;;;;;;;5128196;27;20090;-72
2021/08/18 08:33:23;;;;;;;26.02;16.25;;;;;;;;;;5113156;27;20019;-71
2021/08/18 08:35:48;;;;;;;23.27;15.32;;;;;;;;;;5112359;27;20026;-71
2021/08/18 08:38:15;;;;;;;25.47;14.60;;;;;;;;;;5129071;27;20027;-71
2021/08/18 08:40:43;;;;;;;33.25;16.73;;;;;;;;;;5121778;27;20361;-71
2021/08/18 08:43:09;;;;;;;23.30;15.68;;;;;;;;;;5136447;27;20387;-71
2021/08/18 08:45:34;;;;;;;21.60;13.88;;;;;;;;;;5132298;27;20106;-71
2021/08/18 08:47:59;;;;;;;24.58;14.30;;;;;;;;;;5112227;27;20046;-72
2021/08/18 08:50:25;;;;;;;24.73;14.60;;;;;;;;;;5119056;27;20031;-72
2021/08/18 08:52:50;;;;;;;23.08;14.30;;;;;;;;;;5112427;28;20250;-72
2021/08/18 08:55:16;;;;;;;24.25;14.50;;;;;;;;;;5116597;27;20030;-72
2021/08/18 08:57:44;;;;;;;19.23;13.48;;;;;;;;;;5119889;27;20011;-72
2021/08/18 09:00:10;;;;;;;26.83;14.45;;;;;;;;;;5112253;27;20034;-72
2021/08/18 09:02:35;;;;;;;22.92;14.77;;;;;;;;;;5112390;27;20388;-72
2021/08/18 09:05:00;;;;;;;23.77;14.80;;;;;;;;;;5111630;28;20466;-72
2021/08/18 09:07:25;;;;;;;26.20;14.83;;;;;;;;;;5122712;27;20261;-72
2021/08/18 09:09:58;;;;;;;25.47;14.77;;;;;;;;;;5119775;27;20265;-72
2021/08/18 09:12:27;;;;;;;27.45;15.98;;;;;;;;;;5111592;27;20811;-72
2021/08/18 09:14:53;;;;;;;24.55;14.55;;;;;;;;;;5123031;27;20553;-72
2021/08/18 09:17:28;;;;;;;26.75;14.52;;;;;;;;;;5120943;27;20019;-72
2021/08/18 09:20:07;;;;;;;23.20;15.13;;;;;;;;;;5111688;28;20015;-72
2021/08/18 09:22:35;;;;;;;26.23;15.02;;;;;;;;;;5111830;27;20054;-72
2021/08/18 09:25:11;;;;;;;15.55;9.40;;;;;;;;;;5112110;28;20389;-72
2021/08/18 09:27:37;;;;;;;18.02;9.65;;;;;;;;;;5118359;27;20549;-72
2021/08/18 09:30:04;;;;;;;16.80;8.52;;;;;;;;;;5111730;27;20016;-72
2021/08/18 09:32:32;;;;;;;9.15;6.22;;;;;;;;;;5110844;28;20008;-72
2021/08/18 09:34:58;;;;;;;11.50;6.53;;;;;;;;;;5112301;27;20019;-72
2021/08/18 09:37:24;;;;;;;8.35;5.50;;;;;;;;;;5120111;27;20063;-72
2021/08/18 09:39:49;;;;;;;7.60;4.72;;;;;;;;;;5130155;27;20106;-72
2021/08/18 09:42:32;;;;;;;7.90;4.85;;;;;;;;;;5124600;27;20619;-72
2021/08/18 09:45:08;;;;;;;10.80;4.60;;;;;;;;;;5112236;27;20047;-72
2021/08/18 09:47:33;;;;;;;11.20;4.95;;;;;;;;;;5111758;28;20004;-72
2021/08/18 09:49:59;;;;;;;15.45;4.70;;;;;;;;;;5111979;28;20488;-71
2021/08/18 09:52:24;;;;;;;13.00;5.60;;;;;;;;;;5114186;27;20480;-71
2021/08/18 09:54:50;;;;;;;9.98;5.00;;;;;;;;;;5120323;27;20267;-71
2021/08/18 09:57:15;;;;;;;10.85;5.00;;;;;;;;;;5115689;27;20011;-72
2021/08/18 09:59:43;;;;;;;8.50;4.90;;;;;;;;;;5130798;28;20007;-72
2021/08/18 10:02:09;;;;;;;10.27;4.57;;;;;;;;;;5128097;27;20257;-71
2021/08/18 10:04:34;;;;;;;14.82;5.50;;;;;;;;;;5127627;28;20354;-72
2021/08/18 10:06:59;;;;;;;9.23;5.95;;;;;;;;;;5110454;28;20109;-72
2021/08/18 10:09:25;;;;;;;13.15;4.90;;;;;;;;;;5110919;28;20024;-72
2021/08/18 10:11:50;;;;;;;10.50;5.90;;;;;;;;;;5118286;28;20031;-71
2021/08/18 10:14:15;;;;;;;6.38;4.47;;;;;;;;;;5107061;28;20047;-71
2021/08/18 10:16:40;;;;;;;9.60;4.77;;;;;;;;;;5111608;28;20028;-71
2021/08/18 10:19:06;;;;;;;19.03;5.60;;;;;;;;;;5113071;28;20285;-72
2021/08/18 10:21:32;;;;;;;8.98;4.93;;;;;;;;;;5113661;28;20280;-71
2021/08/18 10:23:58;;;;;;;7.40;5.05;;;;;;;;;;5119839;28;20019;-71
2021/08/18 10:26:33;;;;;;;7.00;4.88;;;;;;;;;;5126769;28;20046;-71
2021/08/18 10:28:58;;;;;;;10.60;5.45;;;;;;;;;;5092355;28;20030;-72
2021/08/18 10:31:42;;;;;;;10.25;5.45;;;;;;;;;;5112309;28;21735;-71
2021/08/18 10:34:30;;;;;;;14.32;5.03;;;;;;;;;;5118776;27;20051;-71
2021/08/18 10:36:58;;;;;;;11.20;5.50;;;;;;;;;;5114983;27;20073;-72
2021/08/18 10:39:24;;;;;;;12.05;5.57;;;;;;;;;;5112266;28;20023;-71
2021/08/18 10:42:03;;;;;;;7.30;4.53;;;;;;;;;;5118178;27;20073;-72
2021/08/18 10:44:35;;;;;;;6.25;4.63;;;;;;;;;;5123609;27;20024;-71
2021/08/18 10:47:20;;;;;;;10.25;4.72;;;;;;;;;;5111921;22;20128;-71
2021/08/18 10:50:05;;;;;;;7.18;5.38;;;;;;;;;;5105112;28;20024;-71
2021/08/18 10:52:30;;;;;;;9.85;5.15;;;;;;;;;;5065292;28;20545;-71
2021/08/18 10:55:03;;;;;;;6.80;5.13;;;;;;;;;;5103841;28;20023;-71
2021/08/18 10:57:37;;;;;;;5.95;5.25;;;;;;;;;;5129178;27;20603;-71
2021/08/18 11:00:22;;;;;;;7.20;4.55;;;;;;;;;;5133576;27;20039;-71
2021/08/18 11:02:53;;;;;;;6.55;4.18;;;;;;;;;;5123257;27;20069;-71
2021/08/18 11:05:23;;;;;;;6.80;3.88;;;;;;;;;;5118786;27;20384;-71
2021/08/18 11:08:07;;;;;;;6.77;3.47;;;;;;;;;;5123151;27;20024;-71
2021/08/18 11:10:33;;;;;;;7.65;3.58;;;;;;;;;;5127831;27;20252;-71
2021/08/18 11:12:59;;;;;;;5.10;2.85;;;;;;;;;;5122746;27;20020;-71
2021/08/18 11:15:24;;;;;;;4.72;3.15;;;;;;;;;;5133295;27;20503;-71
2021/08/18 11:17:50;;;;;;;7.45;3.20;;;;;;;;;;5134263;27;20362;-71
2021/08/18 11:20:16;;;;;;;5.22;3.72;;;;;;;;;;5126113;27;20023;-71
2021/08/18 11:22:41;;;;;;;8.57;3.58;;;;;;;;;;5126265;27;20451;-71
2021/08/18 11:25:07;;;;;;;4.82;3.30;;;;;;;;;;5127483;27;20084;-71
2021/08/18 11:27:32;;;;;;;4.47;3.60;;;;;;;;;;5132113;27;20011;-71
2021/08/18 11:29:57;;;;;;;4.90;3.63;;;;;;;;;;5128839;27;20098;-71
2021/08/18 11:32:26;;;;;;;5.93;4.07;;;;;;;;;;5120608;27;20260;-71
2021/08/18 11:34:51;;;;;;;7.25;4.25;;;;;;;;;;5117767;27;20035;-71
2021/08/18 11:37:17;;;;;;;6.22;4.22;;;;;;;;;;5108683;28;20538;-71
2021/08/18 11:39:49;;;;;;;8.23;4.55;;;;;;;;;;5120162;27;20305;-71
2021/08/18 11:42:14;;;;;;;9.05;6.05;;;;;;;;;;5121006;27;20015;-71
2021/08/18 11:44:41;;;;;;;8.30;5.20;;;;;;;;;;5120606;27;20067;-71
2021/08/18 11:47:07;;;;;;;12.43;7.43;;;;;;;;;;5121560;27;20015;-71
2021/08/18 11:49:32;;;;;;;17.48;8.93;;;;;;;;;;5114222;27;20015;-71
2021/08/18 11:51:58;;;;;;;14.13;7.43;;;;;;;;;;5125243;27;20015;-71
2021/08/18 11:54:24;;;;;;;8.82;5.72;;;;;;;;;;5122633;27;20049;-71
2021/08/18 11:57:15;;;;;;;7.47;6.13;;;;;;;;;;5119628;27;20020;-71
2021/08/18 11:59:40;;;;;;;11.77;6.43;;;;;;;;;;5118053;27;20028;-71
2021/08/18 12:02:08;;;;;;;10.37;5.23;;;;;;;;;;5123918;27;20034;-72
2021/08/18 12:04:34;;;;;;;9.20;5.63;;;;;;;;;;5118495;27;20264;-71
2021/08/18 12:07:10;;;;;;;7.57;5.35;;;;;;;;;;5113565;27;20412;-72
2021/08/18 12:09:35;;;;;;;9.13;6.03;;;;;;;;;;5121826;27;20406;-72
2021/08/18 12:12:05;;;;;;;10.93;6.10;;;;;;;;;;5121587;27;20023;-71
2021/08/18 12:14:36;;;;;;;13.50;8.40;;;;;;;;;;5129062;27;20265;-72
2021/08/18 12:17:01;;;;;;;11.50;7.18;;;;;;;;;;5120209;27;20023;-72
2021/08/18 12:19:27;;;;;;;13.73;7.18;;;;;;;;;;5115203;27;20078;-71
2021/08/18 12:22:31;;;;;;;14.88;6.88;;;;;;;;;;5115814;27;20019;-71
2021/08/18 12:25:07;;;;;;;9.95;7.15;;;;;;;;;;5057412;28;20021;-71
2021/08/18 12:27:33;;;;;;;11.48;7.43;;;;;;;;;;5058653;28;20023;-71
2021/08/18 12:30:02;;;;;;;12.07;8.32;;;;;;;;;;5095883;27;20030;-71
2021/08/18 12:32:28;;;;;;;14.35;7.85;;;;;;;;;;5127255;27;20453;-71
2021/08/18 12:34:57;;;;;;;9.60;6.28;;;;;;;;;;5124159;27;20108;-71
2021/08/18 12:37:25;;;;;;;11.48;6.78;;;;;;;;;;5131766;27;20007;-71
2021/08/18 12:39:56;;;;;;;12.77;6.25;;;;;;;;;;5126976;27;20487;-71
2021/08/18 12:42:29;;;;;;;16.35;9.30;;;;;;;;;;5124068;27;20019;-71
2021/08/18 12:45:14;;;;;;;14.88;9.88;;;;;;;;;;5123983;27;20021;-71
2021/08/18 12:47:43;;;;;;;13.18;9.38;;;;;;;;;;5098660;28;20282;-71
2021/08/18 12:50:13;;;;;;;12.77;8.97;;;;;;;;;;5118708;27;20038;-71
2021/08/18 12:52:38;;;;;;;13.57;7.67;;;;;;;;;;5113075;27;20016;-71
2021/08/18 12:55:04;;;;;;;12.70;7.90;;;;;;;;;;5117505;27;20268;-71
2021/08/18 12:57:29;;;;;;;13.35;9.02;;;;;;;;;;5128450;27;20015;-71
2021/08/18 12:59:54;;;;;;;14.27;9.20;;;;;;;;;;5130461;27;20114;-71
2021/08/18 13:02:20;;;;;;;15.38;9.00;;;;;;;;;;5122955;27;20388;-71
2021/08/18 13:04:45;;;;;;;11.77;6.63;;;;;;;;;;5130670;27;20023;-71
2021/08/18 13:07:10;;;;;;;11.98;6.60;;;;;;;;;;5132121;27;20264;-71
2021/08/18 13:09:35;;;;;;;7.47;5.75;;;;;;;;;;5122423;27;20018;-71
2021/08/18 13:12:01;;;;;;;11.45;5.85;;;;;;;;;;5112205;27;20057;-71
2021/08/18 13:14:27;;;;;;;10.25;5.47;;;;;;;;;;5130172;27;20588;-71
2021/08/18 13:16:52;;;;;;;8.55;4.93;;;;;;;;;;5111995;27;20442;-72
2021/08/18 13:19:17;;;;;;;8.45;5.18;;;;;;;;;;5124917;27;20027;-71
2021/08/18 13:21:43;;;;;;;7.60;4.45;;;;;;;;;;5130540;27;20023;-71
2021/08/18 13:24:09;;;;;;;8.20;3.80;;;;;;;;;;5131109;27;20015;-71
2021/08/18 13:26:34;;;;;;;4.82;3.30;;;;;;;;;;5120815;27;20382;-71
2021/08/18 13:29:00;;;;;;;10.68;4.10;;;;;;;;;;5102377;28;20092;-71
2021/08/18 13:31:25;;;;;;;8.15;3.70;;;;;;;;;;5116219;27;20358;-71
2021/08/18 13:33:50;;;;;;;8.35;3.92;;;;;;;;;;5126328;27;20094;-71
2021/08/18 13:36:15;;;;;;;6.32;3.47;;;;;;;;;;5123513;27;20114;-71
2021/08/18 13:38:41;;;;;;;6.20;4.00;;;;;;;;;;5123271;27;20068;-71
2021/08/18 13:41:06;;;;;;;7.55;4.03;;;;;;;;;;5121818;27;20316;-71
2021/08/18 13:43:31;;;;;;;7.22;4.35;;;;;;;;;;5122842;27;20024;-71
2021/08/18 13:45:57;;;;;;;5.05;3.90;;;;;;;;;;5120725;27;20049;-71
2021/08/18 13:48:22;;;;;;;8.00;4.82;;;;;;;;;;5122164;27;20060;-71
2021/08/18 13:50:47;;;;;;;8.97;4.50;;;;;;;;;;5123728;27;20389;-71
2021/08/18 13:53:12;;;;;;;5.60;4.00;;;;;;;;;;5122886;27;20280;-71
2021/08/18 13:55:40;;;;;;;7.35;4.70;;;;;;;;;;5119377;27;20352;-71
2021/08/18 13:58:05;;;;;;;6.07;4.25;;;;;;;;;;5124364;27;20030;-71
2021/08/18 14:00:30;;;;;;;9.30;5.10;;;;;;;;;;5122790;27;20023;-71
2021/08/18 14:02:56;;;;;;;12.57;5.28;;;;;;;;;;5105245;28;20280;-71
2021/08/18 14:05:22;;;;;;;9.30;5.88;;;;;;;;;;5123316;28;20030;-71
2021/08/18 14:07:47;;;;;;;11.15;4.85;;;;;;;;;;5127111;27;20383;-71
2021/08/18 14:10:13;;;;;;;8.85;5.00;;;;;;;;;;5121642;28;20102;-71
2021/08/18 14:12:38;;;;;;;7.40;5.13;;;;;;;;;;5123163;28;20015;-71
2021/08/18 14:15:03;;;;;;;8.87;5.67;;;;;;;;;;5126588;28;20268;-71
2021/08/18 14:17:29;;;;;;;11.45;5.70;;;;;;;;;;5126144;27;20757;-71
2021/08/18 14:19:54;;;;;;;10.80;6.68;;;;;;;;;;5121188;27;20188;-71